Time;durP1;ratioP1;P1;durP2;ratioP2;P2;SDS_P1;SDS_P2;PMS_P1;PMS_P2;Temp;Humidity;BMP_temperature;BMP_pressure;BME280_temperature;BME280_humidity;BME280_pressure;Samples;Min_cycle;Max_cycle;Signal;HPM_P1;HPM_P2
2022/01/20 00:04:13;;;;;;;12.07;8.13;;;-3275.00;81.20;;;;;;6275142;28;20252;-60
2022/01/20 00:07:35;;;;;;;13.50;7.93;;;-3275.00;81.40;;;;;;6256210;28;20187;-60
2022/01/20 00:27:02;;;;;;;13.33;7.53;;;-3274.90;80.70;;;;;;6224241;28;20314;-56
2022/01/20 00:39:11;;;;;;;9.93;6.13;;;-3274.70;81.30;;;;;;6256919;28;20264;-57
2022/01/20 00:42:12;;;;;;;9.00;6.53;;;-3274.60;81.50;;;;;;6235922;28;20253;-56
2022/01/20 00:45:13;;;;;;;8.37;6.00;;;-3274.70;81.40;;;;;;6215695;28;20195;-57
2022/01/20 00:48:14;;;;;;;10.00;6.83;;;-3274.60;81.50;;;;;;6228232;28;20207;-57
2022/01/20 00:51:14;;;;;;;9.87;5.77;;;-3274.60;81.60;;;;;;6256913;28;20198;-57
2022/01/20 00:54:15;;;;;;;10.20;6.17;;;-3274.70;81.70;;;;;;6256176;28;20191;-56
2022/01/20 00:57:17;;;;;;;9.23;5.63;;;-3274.60;81.90;;;;;;6256875;28;20187;-53
2022/01/20 01:00:18;;;;;;;11.57;5.70;;;-3274.60;81.90;;;;;;6256494;28;20195;-56
2022/01/20 01:03:21;;;;;;;9.83;6.43;;;-3274.70;81.80;;;;;;6255583;28;20198;-57
2022/01/20 01:09:22;;;;;;;10.63;6.70;;;-3274.60;82.00;;;;;;6234615;28;20216;-52
2022/01/20 01:12:34;;;;;;;10.83;6.97;;;-3274.60;81.90;;;;;;6214830;28;20175;-54
2022/01/20 01:15:41;;;;;;;7.83;6.37;;;-3274.60;81.80;;;;;;6217164;28;20226;-52
2022/01/20 01:22:20;;;;;;;7.80;5.50;;;-3274.60;81.60;;;;;;6242222;28;20176;-54
2022/01/20 01:25:21;;;;;;;9.43;6.50;;;-3274.60;81.80;;;;;;6255579;28;20270;-52
2022/01/20 01:28:27;;;;;;;9.10;6.67;;;-3274.50;81.70;;;;;;6219968;28;20195;-58
2022/01/20 01:34:34;;;;;;;11.60;6.50;;;-3274.40;81.80;;;;;;6271414;28;20326;-58
2022/01/20 01:40:56;;;;;;;11.43;5.63;;;-3274.40;82.30;;;;;;6250366;28;20249;-54
2022/01/20 01:44:02;;;;;;;8.77;6.00;;;-3274.50;82.10;;;;;;6244181;28;20241;-56
2022/01/20 01:47:03;;;;;;;7.83;5.97;;;-3274.50;82.10;;;;;;6240598;28;20195;-54
2022/01/20 01:50:05;;;;;;;7.83;5.30;;;-3274.60;82.20;;;;;;6243750;28;20220;-55
2022/01/20 01:53:08;;;;;;;7.53;4.97;;;-3274.50;81.90;;;;;;6244598;28;20199;-54
2022/01/20 01:56:09;;;;;;;9.97;5.47;;;-3274.50;82.00;;;;;;6266557;28;20202;-56
2022/01/20 01:59:12;;;;;;;8.00;5.40;;;-3274.40;82.20;;;;;;6274508;28;20183;-55
2022/01/20 02:02:24;;;;;;;6.77;4.97;;;-3274.50;82.20;;;;;;6231785;28;20203;-58
2022/01/20 02:05:26;;;;;;;7.23;4.97;;;-3274.50;82.40;;;;;;6249910;28;20263;-56
2022/01/20 02:18:37;;;;;;;8.27;5.07;;;-3274.50;82.00;;;;;;6275763;28;20194;-57
2022/01/20 02:21:56;;;;;;;10.67;5.27;;;-3274.40;82.20;;;;;;6245633;28;20183;-57
2022/01/20 02:25:00;;;;;;;9.47;5.57;;;-3274.20;82.10;;;;;;6243514;28;20219;-56
2022/01/20 02:28:05;;;;;;;8.50;5.30;;;-3274.30;82.40;;;;;;6261669;28;20208;-56
2022/01/20 02:31:06;;;;;;;8.57;5.20;;;-3274.40;82.40;;;;;;6284866;28;20236;-56
2022/01/20 02:34:12;;;;;;;11.90;6.50;;;-3274.40;82.20;;;;;;6284724;28;20190;-58
2022/01/20 02:37:15;;;;;;;19.17;10.57;;;-3274.30;82.40;;;;;;6263989;28;20245;-58
2022/01/20 02:46:49;;;;;;;18.37;10.27;;;-3274.40;82.60;;;;;;6235372;28;20191;-56
2022/01/20 02:49:50;;;;;;;14.07;8.80;;;-3274.30;82.30;;;;;;6251880;28;20187;-57
2022/01/20 02:52:51;;;;;;;13.27;8.67;;;-3274.30;82.40;;;;;;6220207;28;20214;-56
2022/01/20 02:55:53;;;;;;;11.77;7.63;;;-3274.30;82.30;;;;;;6250691;28;20216;-54
2022/01/20 02:58:54;;;;;;;13.97;7.80;;;-3274.20;82.40;;;;;;6270505;28;20191;-55
2022/01/20 03:01:55;;;;;;;11.23;7.67;;;-3274.20;82.50;;;;;;6225181;28;20210;-56
2022/01/20 03:04:56;;;;;;;12.37;7.43;;;-3274.20;82.40;;;;;;6283684;28;20213;-56
2022/01/20 03:08:04;;;;;;;12.10;7.30;;;-3274.20;82.50;;;;;;6260532;28;20198;-55
2022/01/20 03:11:05;;;;;;;13.87;7.00;;;-3274.30;81.80;;;;;;6217875;28;20541;-56
2022/01/20 03:14:06;;;;;;;12.83;7.70;;;-3274.20;82.00;;;;;;6217591;28;20233;-54
2022/01/20 03:17:07;;;;;;;14.73;6.63;;;-3274.20;82.00;;;;;;6225188;28;20309;-56
2022/01/20 03:20:08;;;;;;;12.40;7.30;;;-3274.20;82.30;;;;;;6223322;28;20201;-55
2022/01/20 03:23:09;;;;;;;11.23;6.63;;;-3274.20;82.30;;;;;;6234170;28;20186;-55
2022/01/20 03:26:09;;;;;;;11.27;7.53;;;-3274.10;82.50;;;;;;6234105;28;20247;-58
2022/01/20 03:29:10;;;;;;;13.07;7.40;;;-3274.10;82.50;;;;;;6221590;28;20208;-59
2022/01/20 03:32:11;;;;;;;10.37;6.63;;;-3274.10;82.60;;;;;;6233862;28;20190;-59
2022/01/20 03:35:13;;;;;;;9.30;5.87;;;-3274.10;82.10;;;;;;6250434;28;20264;-59
2022/01/20 03:38:18;;;;;;;12.50;7.97;;;-3274.10;81.90;;;;;;6244224;28;20187;-59
2022/01/20 03:41:19;;;;;;;11.03;7.97;;;-3274.10;82.00;;;;;;6233366;28;20314;-59
2022/01/20 03:44:20;;;;;;;17.30;9.33;;;-3274.10;82.30;;;;;;6235237;28;20190;-59
2022/01/20 03:47:24;;;;;;;15.50;10.37;;;-3274.10;82.30;;;;;;6220037;28;20203;-59
2022/01/20 03:53:44;;;;;;;12.80;8.97;;;-3274.10;82.20;;;;;;6244116;28;20227;-59
2022/01/20 03:56:49;;;;;;;11.77;7.63;;;-3274.00;82.40;;;;;;6239473;28;20268;-59
2022/01/20 04:00:28;;;;;;;10.87;6.43;;;-3274.00;82.50;;;;;;6209189;28;20208;-59
2022/01/20 04:03:49;;;;;;;14.43;7.30;;;-3273.90;82.40;;;;;;6224319;28;20192;-59
2022/01/20 04:07:05;;;;;;;8.80;6.60;;;-3274.10;81.80;;;;;;6218724;28;20202;-54
2022/01/20 04:10:06;;;;;;;12.30;6.90;;;-3274.10;81.80;;;;;;6246270;28;20210;-53
2022/01/20 04:13:09;;;;;;;12.47;8.03;;;-3274.00;81.70;;;;;;6239692;28;20200;-55
2022/01/20 04:16:15;;;;;;;12.73;7.73;;;-3274.10;82.00;;;;;;6243008;28;20221;-55
2022/01/20 04:19:16;;;;;;;12.20;8.83;;;-3274.00;81.70;;;;;;6261005;28;20281;-53
2022/01/20 04:22:17;;;;;;;13.80;8.50;;;-3273.90;81.90;;;;;;6243329;28;20183;-56
2022/01/20 04:25:19;;;;;;;11.03;8.10;;;-3273.80;82.50;;;;;;6247926;28;20201;-55
2022/01/20 04:28:20;;;;;;;12.17;8.37;;;-3273.80;82.50;;;;;;6224840;28;20190;-55
2022/01/20 04:31:21;;;;;;;12.37;8.30;;;-3273.80;82.70;;;;;;6244664;28;20225;-55
2022/01/20 04:34:24;;;;;;;10.70;7.30;;;-3273.80;82.90;;;;;;6231727;28;20204;-53
2022/01/20 04:37:26;;;;;;;10.20;7.03;;;-3273.70;83.00;;;;;;6246885;28;20187;-55
2022/01/20 04:40:26;;;;;;;11.70;7.10;;;-3273.80;82.80;;;;;;6267516;28;20173;-54
2022/01/20 04:43:28;;;;;;;11.97;6.70;;;-3273.80;82.70;;;;;;6240513;28;20230;-55
2022/01/20 04:46:56;;;;;;;9.20;7.13;;;-3273.80;83.10;;;;;;6240422;28;20202;-53
2022/01/20 04:59:53;;;;;;;10.47;6.93;;;-3273.90;83.50;;;;;;6282083;28;20213;-54
2022/01/20 05:02:54;;;;;;;8.97;6.53;;;-3274.00;83.10;;;;;;6262833;28;20189;-56
2022/01/20 05:05:55;;;;;;;12.07;6.40;;;-3273.90;83.10;;;;;;6223572;28;20193;-61
2022/01/20 05:08:57;;;;;;;10.60;7.00;;;-3273.90;83.40;;;;;;6231309;28;20202;-61
2022/01/20 05:12:09;;;;;;;12.13;7.17;;;-3274.00;83.50;;;;;;6239088;28;20203;-61
2022/01/20 05:15:12;;;;;;;11.30;6.73;;;-3274.00;82.70;;;;;;6230967;28;20250;-61
2022/01/20 05:18:14;;;;;;;10.63;7.20;;;-3273.90;82.20;;;;;;6234825;28;20230;-61
2022/01/20 05:21:14;;;;;;;11.63;6.67;;;-3273.80;82.30;;;;;;6222335;28;20284;-61
2022/01/20 05:24:16;;;;;;;8.83;6.63;;;-3273.80;82.30;;;;;;6239267;28;20283;-61
2022/01/20 05:27:17;;;;;;;11.77;7.77;;;-3273.80;82.60;;;;;;6240276;28;20194;-63
2022/01/20 05:30:17;;;;;;;13.90;7.03;;;-3273.80;82.40;;;;;;6239671;28;20191;-62
2022/01/20 05:33:41;;;;;;;11.90;7.47;;;-3273.70;82.90;;;;;;6236839;28;20249;-59
2022/01/20 05:36:46;;;;;;;12.17;6.97;;;-3273.70;83.10;;;;;;6239259;28;20280;-61
2022/01/20 05:39:47;;;;;;;13.87;6.93;;;-3273.70;83.20;;;;;;6233533;28;20188;-60
2022/01/20 05:42:52;;;;;;;11.70;7.17;;;-3273.90;83.20;;;;;;6237290;28;20276;-60
2022/01/20 05:45:53;;;;;;;8.63;6.30;;;-3274.00;82.70;;;;;;6229146;28;20233;-60
2022/01/20 05:48:58;;;;;;;10.57;7.00;;;-3274.00;83.00;;;;;;6228168;28;20290;-60
2022/01/20 05:52:09;;;;;;;9.57;7.23;;;-3274.20;82.30;;;;;;6241202;28;20198;-60
2022/01/20 05:55:16;;;;;;;11.63;6.37;;;-3274.10;82.70;;;;;;6228588;28;20239;-60
2022/01/20 05:58:19;;;;;;;12.20;7.13;;;-3274.10;82.20;;;;;;6249996;28;20192;-60
2022/01/20 06:01:20;;;;;;;11.73;6.97;;;-3274.00;82.40;;;;;;6252752;28;20522;-60
2022/01/20 06:04:22;;;;;;;12.27;6.70;;;-3274.00;82.40;;;;;;6258332;28;20189;-59
2022/01/20 06:07:23;;;;;;;13.87;6.63;;;-3274.10;82.60;;;;;;6244980;28;20202;-58
2022/01/20 06:10:25;;;;;;;10.17;7.13;;;-3274.20;82.50;;;;;;6242165;28;20191;-60
2022/01/20 06:13:31;;;;;;;72.30;29.27;;;-3274.10;82.70;;;;;;6220907;28;20190;-60
2022/01/20 06:16:35;;;;;;;37.07;16.57;;;-3274.20;82.70;;;;;;6243739;28;20218;-59
2022/01/20 06:19:36;;;;;;;18.67;9.97;;;-3274.20;82.70;;;;;;6262593;28;20192;-59
2022/01/20 06:22:37;;;;;;;9.53;6.90;;;-3274.20;82.50;;;;;;6236308;28;20199;-60
2022/01/20 06:25:38;;;;;;;13.70;7.40;;;-3274.20;82.40;;;;;;6252753;28;20270;-58
2022/01/20 06:28:43;;;;;;;14.90;8.80;;;-3274.20;82.10;;;;;;6242136;28;20297;-59
2022/01/20 06:31:45;;;;;;;18.03;8.77;;;-3274.10;82.20;;;;;;6229796;28;20191;-57
2022/01/20 06:34:46;;;;;;;13.23;7.80;;;-3274.10;82.30;;;;;;6247816;28;20202;-60
2022/01/20 06:37:47;;;;;;;13.33;7.17;;;-3274.10;82.20;;;;;;6242674;28;20193;-58
2022/01/20 06:40:49;;;;;;;13.17;8.10;;;-3274.20;81.70;;;;;;6237976;28;20225;-58
2022/01/20 06:43:50;;;;;;;12.00;7.03;;;-3274.30;82.20;;;;;;6254080;28;20242;-59
2022/01/20 06:46:52;;;;;;;14.67;8.93;;;-3274.40;82.50;;;;;;6237104;28;20249;-60
2022/01/20 06:50:00;;;;;;;16.83;8.57;;;-3274.50;82.70;;;;;;6246848;28;20195;-60
2022/01/20 06:53:01;;;;;;;13.47;8.57;;;-3274.60;82.90;;;;;;6250563;28;20198;-60
2022/01/20 06:56:02;;;;;;;14.63;8.73;;;-3274.70;83.30;;;;;;6243532;28;20217;-60
2022/01/20 06:59:04;;;;;;;15.73;7.83;;;-3274.80;83.00;;;;;;6258444;28;20240;-60
2022/01/20 07:02:05;;;;;;;13.43;8.30;;;-3274.90;82.80;;;;;;6258706;28;20194;-60
2022/01/20 07:05:11;;;;;;;15.63;8.87;;;-3275.00;82.80;;;;;;6236759;28;20192;-61
2022/01/20 07:08:12;;;;;;;14.37;8.63;;;-3275.00;82.20;;;;;;6242055;28;20278;-61
2022/01/20 07:11:16;;;;;;;12.43;7.07;;;-3275.10;82.20;;;;;;6222242;28;20202;-61
2022/01/20 07:14:16;;;;;;;15.10;8.27;;;-3275.20;82.00;;;;;;6246473;28;20193;-61
2022/01/20 07:17:17;;;;;;;12.33;7.00;;;-3275.20;82.10;;;;;;6287911;28;20226;-61
2022/01/20 07:20:23;;;;;;;10.67;7.13;;;-3275.30;82.30;;;;;;6226081;28;20201;-61
2022/01/20 07:23:46;;;;;;;12.50;7.80;;;-3275.40;82.20;;;;;;6244735;28;20202;-60
2022/01/20 07:26:47;;;;;;;20.87;10.90;;;-3275.50;82.10;;;;;;6241536;28;20193;-60
2022/01/20 07:29:59;;;;;;;19.87;11.63;;;-3275.50;81.90;;;;;;6229544;28;20199;-60
2022/01/20 07:33:03;;;;;;;15.73;9.47;;;-3275.60;81.80;;;;;;6249916;28;20188;-60
2022/01/20 07:36:04;;;;;;;12.67;8.93;;;-3275.50;81.90;;;;;;6259876;28;20229;-59
2022/01/20 07:39:05;;;;;;;12.57;7.20;;;-3275.60;82.00;;;;;;6222732;28;20197;-59
2022/01/20 07:42:06;;;;;;;10.87;7.20;;;-3275.70;82.00;;;;;;6240978;28;20226;-60
2022/01/20 07:45:26;;;;;;;13.40;8.57;;;-3275.70;81.70;;;;;;6239992;28;20230;-59
2022/01/20 07:49:03;;;;;;;14.97;8.33;;;-3276.20;80.70;;;;;;6249273;28;20219;-60
2022/01/20 07:52:05;;;;;;;19.37;9.50;;;-3276.20;80.30;;;;;;6240670;28;20193;-60
2022/01/20 07:55:06;;;;;;;11.07;8.43;;;-3276.20;80.40;;;;;;6265970;28;20303;-54
2022/01/20 07:58:07;;;;;;;9.47;7.37;;;-3276.20;80.70;;;;;;6241260;28;20190;-61
2022/01/20 08:01:15;;;;;;;11.63;7.73;;;-3276.20;80.90;;;;;;6261555;28;20187;-63
2022/01/20 08:04:25;;;;;;;15.23;8.67;;;-3276.40;80.40;;;;;;6243435;28;20266;-63
2022/01/20 08:07:27;;;;;;;17.10;9.87;;;-3276.50;79.70;;;;;;6249916;28;20189;-64
2022/01/20 08:10:28;;;;;;;17.13;9.00;;;-3276.70;79.60;;;;;;6261811;28;20615;-63
2022/01/20 08:13:29;;;;;;;18.07;9.83;;;0.00;79.70;;;;;;6245113;28;20204;-63
2022/01/20 08:16:30;;;;;;;14.83;9.03;;;0.10;78.70;;;;;;6228606;28;20274;-64
2022/01/20 08:19:31;;;;;;;16.73;9.90;;;0.30;78.70;;;;;;6250870;28;20193;-64
2022/01/20 08:22:35;;;;;;;13.97;8.83;;;0.60;78.30;;;;;;6248859;28;20221;-64
2022/01/20 08:25:37;;;;;;;13.07;8.77;;;0.60;78.60;;;;;;6237906;28;20268;-64
2022/01/20 08:28:38;;;;;;;12.73;9.30;;;0.60;78.30;;;;;;6233423;28;20194;-64
2022/01/20 08:31:40;;;;;;;16.80;9.77;;;0.80;78.50;;;;;;6236404;28;20201;-64
2022/01/20 08:35:11;;;;;;;16.27;9.50;;;0.80;79.20;;;;;;6252614;28;20236;-64
2022/01/20 08:38:29;;;;;;;14.17;9.17;;;0.80;78.80;;;;;;6242555;28;20244;-62
2022/01/20 08:41:30;;;;;;;17.80;10.23;;;0.90;79.20;;;;;;6247723;28;20194;-64
2022/01/20 08:44:31;;;;;;;13.17;8.87;;;1.10;78.40;;;;;;6258279;28;20195;-63
2022/01/20 08:47:32;;;;;;;14.83;9.70;;;1.10;78.80;;;;;;6240409;28;20208;-64
2022/01/20 08:50:33;;;;;;;15.23;8.47;;;0.90;79.10;;;;;;6240264;28;20644;-65
2022/01/20 08:53:34;;;;;;;12.17;8.63;;;0.90;79.40;;;;;;6247593;28;20190;-65
2022/01/20 08:56:36;;;;;;;12.07;9.57;;;1.00;79.50;;;;;;6215394;28;20218;-65
2022/01/20 08:59:40;;;;;;;15.40;11.03;;;1.20;79.40;;;;;;6224221;28;20217;-64
2022/01/20 09:02:42;;;;;;;13.53;9.17;;;1.30;79.40;;;;;;6238781;28;20288;-64
2022/01/20 09:05:43;;;;;;;19.70;10.77;;;1.40;79.30;;;;;;6256136;28;20228;-64
2022/01/20 09:08:49;;;;;;;13.90;9.53;;;1.40;78.90;;;;;;6256615;28;20240;-69
2022/01/20 09:12:03;;;;;;;18.90;11.10;;;1.50;79.10;;;;;;6240372;28;20269;-64
2022/01/20 09:18:28;;;;;;;13.70;9.63;;;1.60;77.90;;;;;;6283681;28;20660;-64
2022/01/20 09:21:29;;;;;;;17.30;12.33;;;1.60;78.40;;;;;;6242218;28;20233;-64
2022/01/20 09:24:33;;;;;;;12.77;9.23;;;1.90;77.90;;;;;;6249934;28;20191;-64
2022/01/20 09:27:36;;;;;;;13.63;9.60;;;2.00;77.60;;;;;;6228407;28;20190;-64
2022/01/20 09:30:39;;;;;;;11.40;9.47;;;2.20;76.50;;;;;;6236088;28;20200;-64
2022/01/20 09:33:40;;;;;;;15.10;10.20;;;2.30;76.20;;;;;;6233390;28;20186;-64
2022/01/20 09:36:42;;;;;;;13.60;9.87;;;2.30;76.00;;;;;;6233807;28;20206;-64
2022/01/20 09:39:44;;;;;;;17.47;10.90;;;2.40;75.50;;;;;;6245033;28;20195;-64
2022/01/20 09:42:58;;;;;;;14.13;10.47;;;2.60;75.20;;;;;;6269260;28;20712;-64
2022/01/20 09:46:00;;;;;;;14.40;10.77;;;2.80;75.30;;;;;;6250305;28;20194;-67
2022/01/20 09:49:04;;;;;;;12.93;9.40;;;3.20;73.80;;;;;;6229642;28;20202;-66
2022/01/20 09:52:24;;;;;;;12.80;9.70;;;3.30;72.80;;;;;;6263916;28;20216;-66
2022/01/20 09:55:32;;;;;;;12.83;9.23;;;3.30;73.10;;;;;;6235263;28;20224;-66
2022/01/20 09:58:34;;;;;;;12.43;8.87;;;3.40;72.00;;;;;;6247155;28;20201;-64
2022/01/20 10:01:50;;;;;;;17.13;9.33;;;3.50;71.60;;;;;;6235645;28;20191;-62
2022/01/20 10:04:56;;;;;;;15.13;8.73;;;3.60;70.80;;;;;;6254191;28;20736;-61
2022/01/20 10:08:10;;;;;;;14.93;9.40;;;3.80;71.10;;;;;;6240316;28;20297;-64
2022/01/20 10:11:16;;;;;;;12.50;8.27;;;3.80;71.40;;;;;;6260572;28;20190;-66
2022/01/20 10:14:45;;;;;;;11.47;8.03;;;3.90;69.80;;;;;;6234365;28;20194;-66
2022/01/20 10:18:05;;;;;;;11.67;7.67;;;4.20;69.40;;;;;;6256436;28;20288;-67
2022/01/20 10:21:06;;;;;;;12.27;7.30;;;4.30;67.70;;;;;;6258953;28;20193;-64
2022/01/20 10:24:30;;;;;;;15.17;6.87;;;4.40;67.30;;;;;;6244803;28;20210;-65
2022/01/20 10:27:49;;;;;;;14.80;7.63;;;4.50;67.00;;;;;;6240219;28;20203;-64
2022/01/20 10:30:50;;;;;;;12.53;7.30;;;4.30;67.10;;;;;;6241007;28;20204;-64
2022/01/20 10:33:51;;;;;;;15.23;6.90;;;4.40;66.30;;;;;;6258133;28;20193;-64
2022/01/20 10:36:55;;;;;;;12.00;6.77;;;4.30;65.70;;;;;;6241282;28;20239;-64
2022/01/20 10:40:09;;;;;;;16.03;7.47;;;4.30;66.20;;;;;;6258065;28;20213;-64
2022/01/20 10:43:19;;;;;;;11.60;6.53;;;4.30;67.00;;;;;;6275053;28;20287;-64
2022/01/20 10:46:20;;;;;;;12.50;6.80;;;4.50;65.80;;;;;;6242882;28;20206;-63
2022/01/20 10:49:30;;;;;;;10.43;7.37;;;4.60;65.60;;;;;;6243702;28;20244;-63
2022/01/20 10:52:37;;;;;;;9.97;6.80;;;4.70;65.20;;;;;;6258879;28;20281;-62
2022/01/20 10:55:38;;;;;;;14.20;7.50;;;5.00;64.00;;;;;;6275758;28;20214;-62
2022/01/20 10:58:44;;;;;;;9.80;5.67;;;5.10;63.60;;;;;;6243862;28;20259;-63
2022/01/20 11:02:09;;;;;;;12.67;7.30;;;5.30;63.30;;;;;;6258235;28;20196;-63
2022/01/20 11:05:15;;;;;;;9.43;5.67;;;5.50;64.00;;;;;;6282554;28;20198;-63
2022/01/20 11:08:17;;;;;;;10.20;6.33;;;5.70;61.90;;;;;;6258720;28;20198;-63
2022/01/20 11:11:18;;;;;;;9.40;5.97;;;5.80;60.70;;;;;;6240934;28;20275;-62
2022/01/20 11:14:44;;;;;;;11.13;6.83;;;5.80;60.30;;;;;;6229830;28;20195;-62
2022/01/20 11:17:52;;;;;;;12.53;6.17;;;5.90;60.40;;;;;;6292019;28;20195;-62
2022/01/20 11:20:55;;;;;;;10.63;6.60;;;6.00;60.50;;;;;;6241797;28;20624;-62
2022/01/20 11:24:00;;;;;;;13.50;6.60;;;6.20;61.00;;;;;;6237042;28;20261;-61
2022/01/20 11:27:06;;;;;;;12.47;6.77;;;6.40;61.30;;;;;;6227945;28;20270;-63
2022/01/20 11:30:21;;;;;;;8.87;6.27;;;6.50;59.40;;;;;;6264018;28;20214;-63
2022/01/20 11:33:40;;;;;;;18.50;7.90;;;6.60;60.00;;;;;;6259051;28;20170;-64
2022/01/20 11:36:41;;;;;;;8.97;6.77;;;6.50;59.50;;;;;;6242618;28;20209;-64
2022/01/20 11:39:42;;;;;;;13.33;7.07;;;6.50;59.30;;;;;;6258002;28;20559;-64
2022/01/20 11:43:04;;;;;;;10.23;6.87;;;6.60;59.10;;;;;;6263491;28;20241;-61
2022/01/20 11:46:24;;;;;;;8.93;6.43;;;6.70;59.10;;;;;;6257952;28;20191;-61
2022/01/20 11:49:38;;;;;;;13.50;7.27;;;6.80;57.60;;;;;;6249301;28;20259;-62
2022/01/20 11:52:39;;;;;;;13.43;7.70;;;6.90;57.00;;;;;;6266482;28;20277;-62
2022/01/20 11:55:47;;;;;;;11.93;6.90;;;7.00;57.10;;;;;;6223771;28;20217;-62
2022/01/20 11:58:51;;;;;;;9.60;6.37;;;7.40;55.40;;;;;;6251026;28;20325;-62
2022/01/20 12:01:55;;;;;;;10.97;6.47;;;7.50;54.70;;;;;;6256077;28;20186;-63
2022/01/20 12:04:56;;;;;;;12.13;7.10;;;7.70;54.20;;;;;;6250475;28;20214;-62
2022/01/20 12:08:20;;;;;;;11.87;6.77;;;7.80;53.70;;;;;;6240822;28;20209;-58
2022/01/20 12:11:32;;;;;;;10.87;6.97;;;8.00;53.30;;;;;;6256693;28;20192;-60
2022/01/20 12:14:36;;;;;;;10.00;6.67;;;7.90;53.80;;;;;;6276005;28;20182;-60
2022/01/20 12:17:41;;;;;;;9.83;6.10;;;8.00;52.30;;;;;;6244391;28;20345;-62
2022/01/20 12:20:42;;;;;;;15.93;6.40;;;8.00;51.70;;;;;;6249672;28;20194;-62
2022/01/20 12:23:46;;;;;;;8.47;5.87;;;8.00;52.00;;;;;;6234245;28;20220;-62
2022/01/20 12:26:47;;;;;;;9.67;5.87;;;8.20;52.20;;;;;;6272798;28;20194;-61
2022/01/20 12:29:48;;;;;;;11.10;6.87;;;8.40;51.10;;;;;;6257122;28;20326;-61
2022/01/20 12:33:03;;;;;;;10.50;6.03;;;8.60;50.30;;;;;;6248699;28;20208;-62
2022/01/20 12:36:04;;;;;;;7.37;5.60;;;8.70;49.30;;;;;;6281010;28;20207;-61
2022/01/20 12:39:06;;;;;;;9.57;6.00;;;8.60;50.20;;;;;;6246597;28;20193;-61
2022/01/20 12:42:11;;;;;;;9.97;6.37;;;8.40;48.90;;;;;;6233115;28;20316;-62
2022/01/20 12:48:58;;;;;;;10.80;6.40;;;8.80;48.80;;;;;;6264126;28;20218;-62
2022/01/20 12:51:59;;;;;;;10.50;6.10;;;8.90;48.80;;;;;;6265576;28;20186;-62
2022/01/20 12:55:00;;;;;;;9.90;5.87;;;9.10;48.90;;;;;;6243698;28;20216;-62
2022/01/20 12:58:01;;;;;;;8.67;5.40;;;9.10;48.90;;;;;;6229042;28;20197;-62
2022/01/20 13:01:04;;;;;;;8.27;4.60;;;9.10;47.70;;;;;;6238708;28;20270;-60
2022/01/20 13:04:06;;;;;;;4.97;3.60;;;9.30;46.10;;;;;;6233800;28;20321;-60
2022/01/20 13:07:10;;;;;;;14.30;6.47;;;9.50;45.30;;;;;;6243394;28;20269;-61
2022/01/20 13:10:31;;;;;;;9.43;5.60;;;9.70;45.60;;;;;;6258259;28;20197;-61
2022/01/20 13:13:31;;;;;;;7.33;5.40;;;9.80;45.30;;;;;;6236924;28;20205;-61
2022/01/20 13:16:33;;;;;;;16.13;7.90;;;10.30;44.20;;;;;;6251542;28;20236;-60
2022/01/20 13:19:40;;;;;;;13.93;10.40;;;10.50;44.80;;;;;;6252924;28;20189;-61
2022/01/20 13:22:55;;;;;;;20.77;11.23;;;10.50;45.30;;;;;;6232674;28;20331;-61
2022/01/20 13:26:05;;;;;;;18.43;10.53;;;10.50;46.10;;;;;;6240895;28;20209;-61
2022/01/20 13:29:06;;;;;;;15.97;10.70;;;10.50;46.50;;;;;;6240499;28;20197;-61
2022/01/20 13:32:07;;;;;;;17.67;11.00;;;10.30;47.40;;;;;;6257523;28;20197;-61
2022/01/20 13:35:08;;;;;;;20.20;12.77;;;10.30;46.40;;;;;;6245616;28;20209;-61
2022/01/20 13:38:09;;;;;;;21.33;12.53;;;10.00;47.90;;;;;;6258309;28;20212;-61
2022/01/20 13:41:14;;;;;;;6.97;4.23;;;9.80;48.00;;;;;;6259244;28;20648;-61
2022/01/20 13:47:49;;;;;;;0.97;0.70;;;9.50;36.40;;;;;;6270180;28;20203;-61
2022/01/20 13:50:56;;;;;;;4.23;1.17;;;9.30;36.80;;;;;;6241565;28;20194;-60
2022/01/20 13:53:57;;;;;;;3.10;0.30;;;9.90;36.50;;;;;;6258534;28;20289;-61
2022/01/20 13:56:58;;;;;;;0.47;0.30;;;9.40;34.50;;;;;;6235772;28;20218;-61
2022/01/20 13:59:58;;;;;;;0.43;0.20;;;9.10;35.80;;;;;;6257734;28;20197;-61
2022/01/20 14:02:59;;;;;;;2.00;0.30;;;8.70;36.50;;;;;;6251183;28;20231;-62
2022/01/20 14:06:00;;;;;;;1.47;0.40;;;8.60;35.00;;;;;;6272714;28;20215;-62
2022/01/20 14:09:01;;;;;;;0.30;0.30;;;8.40;34.90;;;;;;6237831;28;20202;-63
2022/01/20 14:12:03;;;;;;;0.20;0.20;;;9.30;33.80;;;;;;6250387;28;20201;-63
2022/01/20 14:15:05;;;;;;;0.47;0.30;;;9.70;32.70;;;;;;6256684;28;20208;-63
2022/01/20 14:18:07;;;;;;;0.30;0.30;;;10.10;32.10;;;;;;6240183;28;20186;-62
2022/01/20 14:21:09;;;;;;;0.30;0.30;;;10.80;31.50;;;;;;6256987;28;20194;-63
2022/01/20 14:24:09;;;;;;;0.77;0.20;;;11.60;29.50;;;;;;6257919;28;20190;-63
2022/01/20 14:27:16;;;;;;;0.30;0.20;;;12.20;28.50;;;;;;6254217;28;20572;-63
2022/01/20 14:30:17;;;;;;;0.83;0.30;;;12.40;28.40;;;;;;6240408;28;20198;-63
2022/01/20 14:33:19;;;;;;;0.67;0.50;;;12.90;28.60;;;;;;6240031;28;20224;-62
2022/01/20 14:36:20;;;;;;;1.70;0.57;;;12.80;29.20;;;;;;6251061;28;20211;-62
2022/01/20 14:39:21;;;;;;;0.43;0.30;;;13.80;28.50;;;;;;6255904;28;20224;-62
2022/01/20 14:42:22;;;;;;;1.00;0.40;;;14.50;27.80;;;;;;6253798;28;20233;-62
2022/01/20 14:45:23;;;;;;;0.30;0.30;;;14.30;27.40;;;;;;6228967;28;20282;-62
2022/01/20 14:48:23;;;;;;;2.17;0.30;;;13.80;28.00;;;;;;6234842;28;20190;-61
2022/01/20 14:51:25;;;;;;;0.50;0.43;;;13.20;29.30;;;;;;6247960;28;20190;-61
2022/01/20 14:54:26;;;;;;;1.23;0.50;;;12.50;29.80;;;;;;6246774;28;20226;-61
2022/01/20 14:57:27;;;;;;;0.50;0.40;;;12.10;30.60;;;;;;6252738;28;20212;-61
2022/01/20 15:00:28;;;;;;;0.43;0.20;;;12.00;30.20;;;;;;6257806;28;20190;-61
2022/01/20 15:03:28;;;;;;;0.33;0.33;;;11.90;30.50;;;;;;6255351;28;20226;-63
2022/01/20 15:06:29;;;;;;;2.13;0.60;;;12.10;32.20;;;;;;6283935;28;20189;-62
2022/01/20 15:09:30;;;;;;;0.70;0.60;;;11.30;32.50;;;;;;6256779;28;20285;-61
2022/01/20 15:12:32;;;;;;;1.13;0.47;;;10.00;35.10;;;;;;6252083;28;20201;-61
2022/01/20 15:15:34;;;;;;;1.30;1.20;;;9.30;36.20;;;;;;6234431;28;20308;-61
2022/01/20 15:18:35;;;;;;;1.00;0.80;;;8.50;38.60;;;;;;6242025;28;20194;-62
2022/01/20 15:21:36;;;;;;;1.10;0.90;;;8.00;39.30;;;;;;6241359;28;20212;-62
2022/01/20 15:24:37;;;;;;;1.17;0.67;;;7.50;40.80;;;;;;6260653;28;20186;-61
2022/01/20 15:27:38;;;;;;;3.10;0.70;;;6.90;41.60;;;;;;6254580;28;20187;-62
2022/01/20 15:30:39;;;;;;;0.77;0.73;;;6.60;43.40;;;;;;6238576;28;20201;-63
2022/01/20 15:33:44;;;;;;;1.40;0.67;;;6.40;44.90;;;;;;6217866;28;20205;-62
2022/01/20 15:36:48;;;;;;;2.07;0.60;;;6.10;46.10;;;;;;6234176;28;20281;-62
2022/01/20 15:39:49;;;;;;;0.40;0.40;;;6.00;46.20;;;;;;6266411;28;20183;-62
2022/01/20 15:42:50;;;;;;;0.50;0.33;;;5.90;47.10;;;;;;6242867;28;20273;-64
2022/01/20 15:45:51;;;;;;;0.30;0.30;;;5.80;47.30;;;;;;6248631;28;20198;-64
2022/01/20 15:48:52;;;;;;;0.70;0.40;;;5.70;47.70;;;;;;6250661;28;20193;-63
2022/01/20 15:51:53;;;;;;;0.47;0.47;;;5.60;47.90;;;;;;6257821;28;20197;-63
2022/01/20 15:54:53;;;;;;;0.40;0.40;;;5.50;48.40;;;;;;6257987;28;20213;-65
2022/01/20 15:57:54;;;;;;;2.30;0.70;;;5.40;49.00;;;;;;6273906;28;20192;-63
2022/01/20 16:00:55;;;;;;;0.87;0.70;;;5.20;49.70;;;;;;6241160;28;20205;-63
2022/01/20 16:03:56;;;;;;;1.47;0.83;;;5.10;49.60;;;;;;6230552;28;20205;-62
2022/01/20 16:06:57;;;;;;;0.90;0.87;;;5.30;49.80;;;;;;6253353;28;20270;-64
2022/01/20 16:09:58;;;;;;;0.77;0.53;;;5.20;50.00;;;;;;6240184;28;20227;-64
2022/01/20 16:13:00;;;;;;;1.17;0.90;;;5.10;50.00;;;;;;6253225;28;20201;-63
2022/01/20 16:16:01;;;;;;;1.50;1.00;;;5.10;50.30;;;;;;6222466;28;20207;-64
2022/01/20 16:19:07;;;;;;;5.30;4.83;;;5.10;50.20;;;;;;6252999;28;20228;-62
2022/01/20 16:22:08;;;;;;;5.20;4.70;;;5.00;51.10;;;;;;6260387;28;20262;-60
2022/01/20 16:25:10;;;;;;;2.47;2.23;;;5.00;51.00;;;;;;6258144;28;20189;-62
2022/01/20 16:28:11;;;;;;;2.40;2.20;;;4.90;51.10;;;;;;6256792;28;20247;-62
2022/01/20 16:31:12;;;;;;;2.53;2.33;;;4.80;51.70;;;;;;6241163;28;20193;-62
2022/01/20 16:34:13;;;;;;;1.60;1.50;;;4.90;51.80;;;;;;6236469;28;20200;-62
2022/01/20 16:37:14;;;;;;;1.17;1.07;;;4.80;52.00;;;;;;6249779;28;20220;-62
2022/01/20 16:40:16;;;;;;;0.80;0.80;;;4.60;52.70;;;;;;6239586;28;20193;-62
2022/01/20 16:43:16;;;;;;;1.33;1.00;;;4.50;53.20;;;;;;6227838;28;20241;-64
2022/01/20 16:46:17;;;;;;;3.13;1.03;;;4.50;53.50;;;;;;6273948;28;20181;-63
2022/01/20 16:49:18;;;;;;;3.10;1.53;;;4.40;53.20;;;;;;6244735;28;20197;-63
2022/01/20 16:52:19;;;;;;;2.27;1.63;;;4.30;52.70;;;;;;6256396;28;20199;-63
2022/01/20 16:55:20;;;;;;;1.67;1.20;;;4.30;50.70;;;;;;6240251;28;20225;-63
2022/01/20 16:58:21;;;;;;;2.47;1.10;;;4.40;48.60;;;;;;6273162;28;20193;-63
2022/01/20 17:01:24;;;;;;;1.40;0.93;;;4.60;47.20;;;;;;6235700;28;20193;-63